Time;durP1;ratioP1;P1;durP2;ratioP2;P2;SDS_P1;SDS_P2;PMS_P1;PMS_P2;Temp;Humidity;BMP_temperature;BMP_pressure;BME280_temperature;BME280_humidity;BME280_pressure;Samples;Min_cycle;Max_cycle;Signal;HPM_P1;HPM_P2
2023/07/29 00:00:35;;;;;;;;;;;23.50;56.20;;;22.61;55.96;100466.03;12252880;19;19914;-86
2023/07/29 00:04:37;;;;;;;;;;;23.50;56.20;;;22.68;55.64;100489.16;12252080;19;19962;-86
2023/07/29 00:08:38;;;;;;;;;;;23.50;56.20;;;22.67;56.03;100476.81;12252824;19;19915;-86
2023/07/29 00:12:40;;;;;;;;;;;23.40;56.20;;;22.59;55.91;100470.69;12254361;19;20250;-86
2023/07/29 00:16:42;;;;;;;;;;;23.40;56.10;;;22.54;56.01;100461.38;12252044;19;20361;-86
2023/07/29 00:20:44;;;;;;;;;;;23.40;56.10;;;22.58;56.08;100479.69;12253769;19;19934;-86
2023/07/29 00:24:51;;;;;;;;;;;23.30;56.20;;;22.50;56.03;100461.91;12252097;19;19914;-86
2023/07/29 00:28:55;;;;;;;;;;;23.30;56.20;;;22.44;55.81;100460.75;12252843;19;19903;-86
2023/07/29 00:32:57;;;;;;;;;;;23.30;56.50;;;22.41;55.65;100463.72;12252908;19;19911;-86
2023/07/29 00:36:59;;;;;;;;;;;23.20;56.10;;;22.30;55.63;100458.75;12250488;19;19921;-86
2023/07/29 00:41:02;;;;;;;;;;;23.20;56.10;;;22.32;55.77;100459.41;12254508;19;19919;-86
2023/07/29 00:45:06;;;;;;;;;;;23.10;56.00;;;22.12;55.81;100428.81;12248763;19;19947;-86
2023/07/29 00:49:07;;;;;;;;;;;23.10;55.90;;;22.20;55.94;100442.16;12250680;19;20264;-86
2023/07/29 00:53:09;;;;;;;;;;;23.00;56.00;;;22.19;55.80;100454.59;12250703;19;19919;-86
2023/07/29 00:57:13;;;;;;;;;;;23.00;56.00;;;22.09;55.64;100440.63;12248651;19;20321;-86
2023/07/29 01:01:15;;;;;;;;;;;22.90;55.90;;;22.05;56.07;100440.09;12249900;19;19974;-85
2023/07/29 01:05:17;;;;;;;;;;;22.80;55.90;;;21.87;55.74;100424.34;12249675;19;19911;-86
2023/07/29 01:09:51;;;;;;;;;;;22.80;55.80;;;21.94;55.83;100443.09;12249172;19;19971;-86
2023/07/29 01:14:00;;;;;;;;;;;22.70;55.90;;;21.91;55.45;100440.78;12252557;19;19982;-87
2023/07/29 01:18:10;;;;;;;;;;;22.70;56.00;;;21.91;55.67;100454.06;12255119;19;19931;-87
2023/07/29 01:22:13;;;;;;;;;;;22.60;55.80;;;21.77;56.02;100436.13;12260929;19;19914;-86
2023/07/29 01:26:15;;;;;;;;;;;22.60;55.80;;;21.75;56.04;100443.41;12260569;19;19918;-86
2023/07/29 01:30:17;;;;;;;;;;;22.50;55.80;;;21.72;56.04;100433.13;12257854;19;19932;-86
2023/07/29 01:34:28;;;;;;;;;;;22.50;55.90;;;21.59;55.75;100422.97;12262985;19;20268;-86
2023/07/29 01:38:35;;;;;;;;;;;22.40;56.00;;;21.42;56.07;100392.88;12258651;19;19959;-86
2023/07/29 01:42:37;;;;;;;;;;;22.40;55.90;;;21.54;56.11;100426.09;12259969;19;20000;-86
2023/07/29 01:46:38;;;;;;;;;;;22.30;55.80;;;21.27;55.92;100397.13;12254955;19;19919;-86
2023/07/29 01:50:40;;;;;;;;;;;22.20;55.70;;;21.37;55.78;100422.59;12255643;19;19915;-86
2023/07/29 01:54:42;;;;;;;;;;;22.10;55.70;;;21.08;55.95;100392.91;12258469;19;20278;-86
2023/07/29 01:58:44;;;;;;;;;;;22.10;55.70;;;21.18;55.71;100421.00;12258332;19;19914;-86
2023/07/29 02:02:45;;;;;;;;;;;22.00;55.80;;;21.27;55.96;100434.31;12258532;19;19919;-86
2023/07/29 02:06:47;;;;;;;;;;;21.90;55.90;;;21.22;56.02;100445.41;12254047;19;19919;-86
2023/07/29 02:10:49;;;;;;;;;;;21.90;55.90;;;21.18;55.89;100442.25;12256863;19;19922;-86
2023/07/29 02:14:50;;;;;;;;;;;21.90;55.90;;;21.16;55.83;100443.41;12260223;19;20340;-86
2023/07/29 02:18:52;;;;;;;;;;;21.90;55.90;;;21.02;55.90;100430.75;12257078;19;19919;-86
2023/07/29 02:22:54;;;;;;;;;;;21.80;55.80;;;20.99;56.09;100438.03;12258999;19;20260;-86
2023/07/29 02:26:55;;;;;;;;;;;21.80;55.80;;;20.96;56.13;100440.19;12257569;19;19915;-86
2023/07/29 02:31:23;;;;;;;;;;;21.70;55.80;;;20.86;55.91;100431.50;12257101;19;19955;-86
2023/07/29 02:35:24;;;;;;;;;;;21.70;55.90;;;20.92;55.78;100450.25;12261354;19;19919;-87
2023/07/29 02:39:26;;;;;;;;;;;21.70;55.90;;;20.80;55.89;100426.84;12260633;19;19922;-87
2023/07/29 02:43:28;;;;;;;;;;;21.60;55.90;;;20.82;55.97;100430.13;12260278;19;19919;-86
2023/07/29 02:47:29;;;;;;;;;;;21.60;55.90;;;20.74;56.31;100437.09;12254767;19;19915;-87
2023/07/29 02:51:31;;;;;;;;;;;21.60;55.90;;;20.58;56.13;100418.44;12255415;19;19915;-87
2023/07/29 02:55:33;;;;;;;;;;;21.60;56.00;;;20.55;56.03;100414.25;12255290;19;19926;-86
2023/07/29 02:59:34;;;;;;;;;;;21.60;56.00;;;20.75;55.94;100453.84;12254746;19;19919;-87
2023/07/29 03:03:36;;;;;;;;;;;21.50;55.90;;;20.57;55.90;100415.91;12255127;19;20450;-86
2023/07/29 03:07:39;;;;;;;;;;;21.50;55.90;;;20.55;55.98;100434.66;12252775;19;19919;-86
2023/07/29 03:11:40;;;;;;;;;;;21.40;55.80;;;20.48;56.34;100430.94;12251518;19;19922;-86
2023/07/29 03:15:42;;;;;;;;;;;21.40;55.70;;;20.25;55.87;100402.28;12253021;19;20320;-86
2023/07/29 03:19:44;;;;;;;;;;;21.30;55.70;;;20.36;55.90;100413.59;12255091;19;20333;-86
2023/07/29 03:23:45;;;;;;;;;;;21.20;55.80;;;20.41;56.20;100435.19;12253938;19;19923;-86
2023/07/29 03:27:49;;;;;;;;;;;21.20;55.80;;;20.31;56.21;100422.88;12250208;19;19927;-86
2023/07/29 03:31:51;;;;;;;;;;;21.20;55.80;;;20.29;56.26;100424.84;12253291;19;19926;-86
2023/07/29 03:35:52;;;;;;;;;;;21.10;55.70;;;20.23;56.04;100425.47;12251130;19;19929;-87
2023/07/29 03:39:54;;;;;;;;;;;21.00;55.70;;;20.25;55.94;100434.09;12256656;19;19927;-86
2023/07/29 03:43:56;;;;;;;;;;;21.00;55.80;;;20.21;56.33;100427.44;12255255;19;20337;-86
2023/07/29 03:47:58;;;;;;;;;;;21.00;55.80;;;20.00;55.96;100395.13;12251671;19;19907;-86
2023/07/29 03:51:59;;;;;;;;;;;21.00;55.80;;;20.06;56.29;100419.22;12253096;19;19926;-87
2023/07/29 03:56:01;;;;;;;;;;;20.90;55.80;;;20.06;56.45;100427.16;12253637;19;19911;-87
2023/07/29 04:00:04;;;;;;;;;;;21.00;56.00;;;20.14;56.30;100436.97;12253337;19;19926;-87
2023/07/29 04:04:05;;;;;;;;;;;20.90;56.00;;;20.14;56.21;100439.63;12255832;19;19941;-86
2023/07/29 04:08:07;;;;;;;;;;;20.90;56.10;;;19.96;56.29;100407.84;12250324;19;19995;-86
2023/07/29 04:12:09;;;;;;;;;;;20.90;56.10;;;20.11;56.30;100432.81;12252933;19;21143;-87
2023/07/29 04:16:11;;;;;;;;;;;20.90;56.00;;;20.07;56.24;100414.75;12253990;19;19923;-86
2023/07/29 04:20:12;;;;;;;;;;;20.90;56.10;;;19.99;56.41;100406.72;12252897;19;19949;-86
2023/07/29 04:24:14;;;;;;;;;;;20.90;56.00;;;20.01;56.33;100400.28;12251065;19;20337;-86
2023/07/29 04:28:16;;;;;;;;;;;20.80;56.10;;;19.93;56.27;100392.28;12247267;19;19915;-86
2023/07/29 04:32:18;;;;;;;;;;;20.90;56.20;;;19.93;56.58;100399.34;12252920;19;19918;-86
2023/07/29 04:36:19;;;;;;;;;;;20.80;56.20;;;19.98;56.65;100402.38;12247647;19;19915;-86
2023/07/29 04:40:22;;;;;;;;;;;20.80;56.40;;;20.02;56.62;100409.88;12250611;19;19936;-86
2023/07/29 04:44:24;;;;;;;;;;;20.80;56.50;;;19.85;56.79;100374.47;12250091;19;19922;-86
2023/07/29 04:48:26;;;;;;;;;;;20.90;56.60;;;20.02;56.37;100409.88;12257204;19;19947;-85
2023/07/29 04:52:28;;;;;;;;;;;20.90;56.60;;;20.11;56.48;100416.91;12263963;19;20351;-86
2023/07/29 04:56:29;;;;;;;;;;;20.90;56.70;;;20.15;56.74;100416.63;12259734;19;19921;-86
2023/07/29 05:00:30;;;;;;;;;;;20.90;56.70;;;20.16;56.88;100423.56;12260528;19;19915;-86
2023/07/29 05:04:32;;;;;;;;;;;21.00;56.90;;;20.24;56.52;100423.63;12260313;19;19919;-87
2023/07/29 05:08:34;;;;;;;;;;;21.10;57.10;;;20.13;56.75;100395.56;12258040;19;19950;-86
2023/07/29 05:12:36;;;;;;;;;;;21.10;57.90;;;20.28;57.08;100407.28;12257070;19;19915;-86
2023/07/29 05:16:38;;;;;;;;;;;21.20;57.70;;;20.43;56.67;100417.31;12254053;19;19915;-86
2023/07/29 05:20:40;;;;;;;;;;;21.20;57.80;;;20.49;57.00;100414.00;12258687;19;19907;-86
2023/07/29 05:24:41;;;;;;;;;;;21.30;57.90;;;20.41;56.72;100382.97;12259733;19;19922;-86
2023/07/29 05:28:43;;;;;;;;;;;21.40;57.80;;;20.59;56.99;100401.50;12256555;19;19907;-86
2023/07/29 05:32:45;;;;;;;;;;;21.50;57.80;;;20.72;57.04;100406.38;12256536;19;20243;-89
2023/07/29 05:36:46;;;;;;;;;;;21.60;58.50;;;20.73;56.80;100389.47;12249847;19;20372;-88
2023/07/29 05:40:48;;;;;;;;;;;21.70;58.30;;;20.80;56.83;100390.50;12254454;19;19933;-88
2023/07/29 05:44:50;;;;;;;;;;;21.80;58.10;;;20.98;56.85;100408.97;12253830;19;20317;-89
2023/07/29 05:48:55;;;;;;;;;;;21.80;58.30;;;21.04;57.06;100402.22;12255116;19;19914;-86
2023/07/29 05:52:56;;;;;;;;;;;22.00;58.80;;;21.17;57.53;100403.41;12253860;19;19922;-86
2023/07/29 05:56:58;;;;;;;;;;;22.10;58.70;;;21.18;57.49;100393.63;12250452;19;19922;-86
2023/07/29 06:00:59;;;;;;;;;;;22.20;58.90;;;21.39;57.33;100404.66;12253306;19;19951;-89
2023/07/29 06:05:02;;;;;;;;;;;22.30;59.20;;;21.53;57.21;100408.50;12260229;19;19922;-87
2023/07/29 06:09:04;;;;;;;;;;;22.40;58.80;;;21.61;57.49;100395.22;12267693;19;19942;-84
2023/07/29 06:13:06;;;;;;;;;;;22.50;59.50;;;21.47;57.49;100333.91;12261139;19;19903;-84
2023/07/29 06:17:07;;;;;;;;;;;22.70;58.80;;;21.96;57.46;100387.09;12258096;19;20380;-85
2023/07/29 06:21:11;;;;;;;;;;;22.80;59.10;;;22.13;57.45;100383.41;12264278;19;19907;-85
2023/07/29 06:25:13;;;;;;;;;;;23.10;59.30;;;22.31;57.93;100375.28;12254847;19;19915;-84
2023/07/29 06:29:14;;;;;;;;;;;23.30;61.80;;;22.40;57.41;100371.59;12257252;19;19929;-86
2023/07/29 06:33:16;;;;;;;;;;;23.50;60.10;;;22.58;57.72;100382.03;12263512;19;19915;-84
2023/07/29 06:37:17;;;;;;;;;;;23.60;59.50;;;22.67;57.56;100366.84;12262638;19;19919;-85
2023/07/29 06:41:19;;;;;;;;;;;23.70;58.90;;;22.70;57.38;100358.53;12270435;19;20361;-87
2023/07/29 06:45:20;;;;;;;;;;;23.80;58.90;;;22.86;57.51;100374.44;12270030;19;19911;-85
2023/07/29 06:49:22;;;;;;;;;;;23.90;59.20;;;22.86;57.87;100357.63;12258814;19;19925;-86
2023/07/29 06:53:25;;;;;;;;;;;23.90;59.00;;;23.04;57.58;100381.38;12260157;19;20339;-83
2023/07/29 06:57:26;;;;;;;;;;;24.00;58.90;;;22.75;57.69;100325.06;12262719;19;19922;-84
2023/07/29 07:01:27;;;;;;;;;;;24.10;58.90;;;23.11;57.77;100371.66;12262808;19;19978;-85
2023/07/29 07:05:29;;;;;;;;;;;24.20;58.60;;;23.21;57.75;100372.28;12258443;19;20298;-85
2023/07/29 07:09:30;;;;;;;;;;;24.20;59.70;;;23.23;57.57;100366.78;12260243;19;19915;-85
2023/07/29 07:13:32;;;;;;;;;;;24.30;58.80;;;23.27;57.45;100368.91;12265208;19;19926;-85
2023/07/29 07:17:33;;;;;;;;;;;24.40;58.60;;;23.47;57.75;100387.13;12261850;19;19974;-85
2023/07/29 07:21:34;;;;;;;;;;;24.50;59.10;;;23.52;57.73;100385.59;12259515;19;20903;-85
2023/07/29 07:25:36;;;;;;;;;;;24.60;59.00;;;23.50;57.72;100366.25;12259800;19;19960;-85
2023/07/29 07:29:37;;;;;;;;;;;24.70;58.70;;;23.75;57.74;100392.78;12262919;19;19951;-86
2023/07/29 07:33:38;;;;;;;;;;;24.70;59.10;;;23.84;57.79;100389.00;12266149;19;19926;-86
2023/07/29 07:37:40;;;;;;;;;;;24.80;59.10;;;23.90;57.73;100388.31;12262111;19;19915;-86
2023/07/29 07:41:42;;;;;;;;;;;24.90;58.80;;;23.88;57.69;100373.50;12262050;19;19922;-85
2023/07/29 07:45:43;;;;;;;;;;;25.00;58.60;;;24.05;57.71;100381.16;12262222;19;19919;-86
2023/07/29 07:49:45;;;;;;;;;;;25.00;58.40;;;24.09;57.92;100370.97;12267138;19;19919;-85
2023/07/29 07:53:46;;;;;;;;;;;25.10;58.40;;;24.16;57.72;100363.88;12269143;19;19921;-85
2023/07/29 07:57:48;;;;;;;;;;;25.10;58.30;;;24.26;57.89;100380.47;12264233;19;19926;-84
2023/07/29 08:01:50;;;;;;;;;;;25.20;58.30;;;24.31;57.94;100373.75;12271565;19;19939;-86
2023/07/29 08:05:51;;;;;;;;;;;25.30;58.30;;;24.35;57.71;100364.34;12273959;19;19925;-85
2023/07/29 08:09:53;;;;;;;;;;;25.40;58.70;;;24.36;57.69;100352.66;12273775;19;19914;-85
2023/07/29 08:13:54;;;;;;;;;;;25.40;58.40;;;24.48;57.66;100370.75;12270421;19;19914;-86
2023/07/29 08:17:56;;;;;;;;;;;25.50;58.30;;;24.31;57.62;100333.72;12263619;19;19935;-87
2023/07/29 08:21:58;;;;;;;;;;;25.50;58.70;;;24.59;57.45;100360.63;12260140;19;19915;-86
2023/07/29 08:26:02;;;;;;;;;;;25.60;58.30;;;24.67;57.84;100358.66;12261062;19;19928;-86
2023/07/29 08:30:04;;;;;;;;;;;25.60;58.30;;;24.70;57.63;100352.13;12259969;19;19930;-85
2023/07/29 08:34:09;;;;;;;;;;;25.70;58.30;;;24.79;57.72;100353.69;12250060;19;21595;-87
2023/07/29 08:38:11;;;;;;;;;;;25.80;58.30;;;24.86;57.89;100354.59;12258299;19;19938;-85
2023/07/29 08:42:14;;;;;;;;;;;25.90;58.30;;;24.92;57.31;100345.00;12267171;19;19919;-87
2023/07/29 08:46:16;;;;;;;;;;;26.00;58.30;;;25.01;57.94;100343.88;12261131;19;19947;-85
2023/07/29 08:50:18;;;;;;;;;;;26.00;58.10;;;25.03;57.60;100333.81;12269763;19;19918;-84
2023/07/29 08:54:20;;;;;;;;;;;26.10;58.10;;;25.09;57.32;100332.25;12263063;19;19935;-86
2023/07/29 08:58:22;;;;;;;;;;;26.20;58.00;;;25.23;57.70;100328.72;12261942;19;20524;-86
2023/07/29 09:02:23;;;;;;;;;;;26.20;58.20;;;25.38;57.48;100342.03;12260953;19;19911;-85
2023/07/29 09:06:27;;;;;;;;;;;26.40;58.20;;;25.43;57.53;100333.44;12262735;19;19915;-86
2023/07/29 09:10:29;;;;;;;;;;;26.50;58.10;;;25.43;57.91;100310.19;12258751;19;20385;-85
2023/07/29 09:14:30;;;;;;;;;;;26.60;58.10;;;25.65;57.55;100331.56;12248987;19;19914;-83
2023/07/29 09:18:32;;;;;;;;;;;26.70;57.90;;;25.73;57.81;100324.22;12251732;19;20263;-82
2023/07/29 09:22:34;;;;;;;;;;;26.70;57.80;;;25.78;57.73;100313.78;12247572;19;19921;-84
2023/07/29 09:26:36;;;;;;;;;;;26.90;57.90;;;25.90;57.63;100329.34;12247726;19;19915;-83
2023/07/29 09:30:42;;;;;;;;;;;27.00;57.90;;;25.96;57.37;100312.50;12249214;19;19919;-85
2023/07/29 09:34:44;;;;;;;;;;;27.00;57.80;;;25.91;57.48;100291.69;12258906;19;19919;-85
2023/07/29 09:38:46;;;;;;;;;;;27.10;57.80;;;26.06;57.44;100294.25;12259240;19;19994;-83
2023/07/29 09:42:51;;;;;;;;;;;27.20;57.60;;;26.30;57.57;100302.81;12261010;19;19922;-85
2023/07/29 09:46:53;;;;;;;;;;;27.30;57.60;;;26.36;57.44;100305.53;12256280;19;20559;-84
2023/07/29 09:50:55;;;;;;;;;;;27.40;57.50;;;26.42;57.39;100311.94;12259538;19;19930;-85
2023/07/29 09:54:57;;;;;;;;;;;27.40;56.90;;;26.39;57.38;100296.28;12258536;19;20351;-84
2023/07/29 09:58:59;;;;;;;;;;;27.50;57.10;;;26.24;57.41;100259.75;12259854;19;19940;-84
2023/07/29 10:03:00;;;;;;;;;;;27.50;56.70;;;26.49;57.36;100289.53;12259963;19;20324;-84
2023/07/29 10:07:02;;;;;;;;;;;27.50;57.00;;;26.51;57.37;100273.28;12255317;19;19911;-83
2023/07/29 10:11:08;;;;;;;;;;;27.60;56.90;;;26.64;57.21;100280.53;12255819;19;19934;-84
2023/07/29 10:15:09;;;;;;;;;;;27.60;55.70;;;26.63;57.41;100268.19;12257860;19;19926;-83
2023/07/29 10:19:13;;;;;;;;;;;27.70;56.90;;;26.72;56.88;100266.97;12258626;19;19922;-85
2023/07/29 10:23:17;;;;;;;;;;;27.70;57.00;;;26.76;57.19;100254.00;12252179;19;19982;-85
2023/07/29 10:27:19;;;;;;;;;;;27.90;56.80;;;26.87;56.97;100254.25;12254487;19;19986;-84
2023/07/29 10:31:22;;;;;;;;;;;27.90;56.60;;;26.88;57.02;100236.31;12255454;19;19956;-83
2023/07/29 10:35:25;;;;;;;;;;;28.00;56.00;;;26.99;57.18;100240.22;12256630;19;19918;-85
2023/07/29 10:39:26;;;;;;;;;;;28.00;56.60;;;27.13;56.91;100239.22;12256149;19;19927;-83
2023/07/29 10:43:37;;;;;;;;;;;28.00;56.40;;;27.12;57.25;100235.72;12252433;19;19915;-84
2023/07/29 10:47:39;;;;;;;;;;;28.10;56.00;;;27.28;56.68;100245.25;12252701;19;20631;-84
2023/07/29 10:51:41;;;;;;;;;;;28.20;55.90;;;27.35;57.01;100240.72;12256447;19;19937;-85
2023/07/29 10:55:43;;;;;;;;;;;28.30;56.10;;;27.34;56.78;100217.59;12255363;19;19922;-84
2023/07/29 10:59:58;;;;;;;;;;;28.40;55.10;;;27.48;56.57;100231.81;12256757;19;19929;-84
2023/07/29 11:04:24;;;;;;;;;;;28.40;55.70;;;27.55;56.92;100229.13;12258563;19;19927;-84
2023/07/29 11:08:30;;;;;;;;;;;28.50;56.00;;;27.60;56.80;100218.59;12249439;19;19915;-84
2023/07/29 11:12:45;;;;;;;;;;;28.60;55.20;;;27.52;56.24;100197.38;12259149;19;19925;-85
2023/07/29 11:16:47;;;;;;;;;;;28.60;54.30;;;27.64;56.43;100205.59;12255313;19;19926;-85
2023/07/29 11:20:48;;;;;;;;;;;28.60;54.70;;;27.65;55.98;100189.28;12256561;19;19914;-84
2023/07/29 11:24:50;;;;;;;;;;;28.60;52.50;;;27.69;56.22;100201.25;12255386;19;19922;-85
2023/07/29 11:28:52;;;;;;;;;;;28.70;50.90;;;27.78;55.99;100217.94;12257978;19;20024;-84
2023/07/29 11:32:55;;;;;;;;;;;28.70;54.10;;;27.80;55.55;100211.34;12258492;19;19918;-84
2023/07/29 11:36:56;;;;;;;;;;;28.80;54.60;;;27.67;55.91;100183.72;12252900;19;19970;-85
2023/07/29 11:41:03;;;;;;;;;;;28.80;53.80;;;27.79;55.82;100222.28;12258734;19;20482;-84
2023/07/29 11:45:09;;;;;;;;;;;28.80;54.60;;;27.76;55.54;100247.69;12259032;19;19930;-84
2023/07/29 11:49:10;;;;;;;;;;;28.70;55.10;;;27.58;55.38;100239.44;12258171;19;19930;-85
2023/07/29 11:53:12;;;;;;;;;;;28.60;55.00;;;27.45;55.48;100267.09;12259627;19;20010;-84
2023/07/29 11:57:18;;;;;;;;;;;28.50;55.30;;;27.32;55.52;100265.22;12253275;19;19975;-84
2023/07/29 12:01:19;;;;;;;;;;;28.30;55.50;;;27.15;55.52;100234.47;12259205;19;20252;-85
2023/07/29 12:05:22;;;;;;;;;;;28.10;55.70;;;27.02;55.64;100240.66;12253742;19;19919;-86
2023/07/29 12:09:23;;;;;;;;;;;28.00;55.90;;;26.85;55.89;100224.13;12251945;19;19915;-87
2023/07/29 12:13:25;;;;;;;;;;;27.80;56.10;;;26.88;55.50;100231.75;12251049;19;19930;-88
2023/07/29 12:17:26;;;;;;;;;;;27.70;56.20;;;26.76;55.23;100219.16;12248728;19;19927;-88
2023/07/29 12:21:29;;;;;;;;;;;27.60;56.30;;;26.84;55.63;100249.28;12248642;19;19918;-88
2023/07/29 12:25:30;;;;;;;;;;;27.50;56.40;;;26.72;55.37;100239.34;12248288;19;19934;-88
2023/07/29 12:29:31;;;;;;;;;;;27.40;56.50;;;26.54;55.46;100213.13;12248221;19;19926;-88
2023/07/29 12:33:35;;;;;;;;;;;27.30;56.70;;;26.39;55.50;100219.44;12247235;19;19918;-89
2023/07/29 12:37:38;;;;;;;;;;;27.20;56.50;;;26.21;55.59;100200.44;12244158;19;19927;-89
2023/07/29 12:41:40;;;;;;;;;;;27.10;56.70;;;26.08;55.72;100185.13;12243443;19;19927;-89
2023/07/29 12:45:41;;;;;;;;;;;27.00;56.70;;;26.24;55.55;100221.44;12244993;19;19923;-88
2023/07/29 12:49:42;;;;;;;;;;;26.90;56.90;;;25.98;55.54;100201.56;12247460;19;19911;-87
2023/07/29 12:53:44;;;;;;;;;;;26.80;56.90;;;26.04;55.54;100222.19;12254264;19;20484;-89
2023/07/29 12:57:45;;;;;;;;;;;26.70;56.90;;;25.93;55.73;100211.22;12252333;19;20321;-88
2023/07/29 13:01:47;;;;;;;;;;;26.60;56.90;;;25.83;55.35;100208.88;12247620;19;20526;-88
2023/07/29 13:05:49;;;;;;;;;;;26.50;56.80;;;25.83;55.52;100225.75;12249691;19;19930;-89
2023/07/29 13:09:50;;;;;;;;;;;26.40;57.00;;;25.75;55.81;100211.69;12258267;19;19974;-89
2023/07/29 13:13:52;;;;;;;;;;;26.40;57.30;;;25.84;55.46;100221.22;12257432;19;19922;-89
2023/07/29 13:17:53;;;;;;;;;;;26.40;57.50;;;25.79;55.69;100219.13;12254536;19;19925;-89
2023/07/29 13:21:55;;;;;;;;;;;26.40;57.60;;;25.80;55.66;100219.97;12257218;19;19922;-89
2023/07/29 13:25:58;;;;;;;;;;;26.40;57.90;;;25.79;55.84;100224.50;12256546;19;19974;-89
2023/07/29 13:29:59;;;;;;;;;;;26.40;58.10;;;25.88;55.80;100243.91;12255178;19;19927;-89
2023/07/29 13:34:01;;;;;;;;;;;26.40;58.10;;;25.86;56.05;100245.94;12260223;19;19985;-88
2023/07/29 13:38:03;;;;;;;;;;;26.50;58.20;;;25.57;55.60;100210.38;12250202;19;19978;-89
2023/07/29 13:42:05;;;;;;;;;;;26.40;57.90;;;25.82;56.08;100242.00;12256313;19;19910;-89
2023/07/29 13:46:06;;;;;;;;;;;26.40;58.00;;;25.67;55.62;100209.19;12255423;19;20000;-88
2023/07/29 13:50:11;;;;;;;;;;;26.40;57.90;;;25.86;55.85;100231.75;12251628;19;20423;-89
2023/07/29 13:54:13;;;;;;;;;;;26.40;57.90;;;25.68;55.94;100198.28;12255959;19;19919;-88
2023/07/29 13:58:15;;;;;;;;;;;26.40;57.90;;;25.84;55.96;100215.88;12235582;19;19935;-89
2023/07/29 14:02:17;;;;;;;;;;;26.50;57.90;;;25.87;56.02;100210.16;12253737;19;19946;-89
2023/07/29 14:06:18;;;;;;;;;;;26.50;57.90;;;25.89;56.23;100202.75;12253352;19;19919;-90
2023/07/29 14:10:19;;;;;;;;;;;26.50;57.90;;;25.93;56.35;100197.84;12251851;19;19996;-89
2023/07/29 14:14:20;;;;;;;;;;;26.50;58.10;;;25.75;56.08;100158.19;12249654;19;19926;-90
2023/07/29 14:18:22;;;;;;;;;;;26.60;58.20;;;26.05;55.95;100199.75;12242862;19;20336;-90
2023/07/29 14:22:24;;;;;;;;;;;26.60;58.20;;;26.02;56.23;100191.28;12253329;19;20238;-90
2023/07/29 14:26:26;;;;;;;;;;;26.70;58.20;;;26.05;55.87;100186.34;12252934;19;19919;-89
2023/07/29 14:30:28;;;;;;;;;;;26.70;58.10;;;26.13;56.38;100189.91;12252770;19;19979;-90
2023/07/29 14:34:30;;;;;;;;;;;26.80;58.10;;;26.12;56.36;100185.59;12251526;19;20332;-89
2023/07/29 14:38:31;;;;;;;;;;;26.80;58.10;;;26.21;56.39;100197.75;12252679;19;19934;-89
2023/07/29 14:42:33;;;;;;;;;;;26.90;58.40;;;26.26;56.24;100198.81;12254404;19;19975;-89
2023/07/29 14:46:35;;;;;;;;;;;26.90;58.40;;;26.24;56.24;100194.66;12248038;19;19911;-91
2023/07/29 14:50:36;;;;;;;;;;;27.00;58.30;;;25.98;55.97;100149.91;12249796;19;19919;-90
2023/07/29 14:54:38;;;;;;;;;;;27.00;58.20;;;26.13;56.18;100198.75;12244802;19;19910;-90
2023/07/29 14:58:39;;;;;;;;;;;27.00;58.00;;;26.17;56.12;100220.59;12245357;19;19927;-92
2023/07/29 15:02:41;;;;;;;;;;;27.00;57.90;;;25.96;56.41;100203.63;12250538;19;19918;-90
2023/07/29 15:06:43;;;;;;;;;;;26.90;57.90;;;26.03;56.06;100228.56;12246780;19;19922;-89
2023/07/29 15:10:46;;;;;;;;;;;26.80;57.70;;;25.98;56.30;100208.78;12243272;19;19918;-91
2023/07/29 15:14:49;;;;;;;;;;;26.80;58.00;;;25.90;56.19;100207.09;12248619;19;19930;-90
2023/07/29 15:18:51;;;;;;;;;;;26.70;57.70;;;25.79;56.18;100186.22;12251622;19;19963;-90
2023/07/29 15:22:53;;;;;;;;;;;26.70;57.80;;;25.72;56.24;100188.03;12248062;19;20002;-91
2023/07/29 15:26:54;;;;;;;;;;;26.60;57.70;;;25.88;56.18;100198.44;12247059;19;20495;-90
2023/07/29 15:30:56;;;;;;;;;;;26.60;57.70;;;25.90;56.08;100188.38;12240613;19;19923;-90
2023/07/29 15:34:57;;;;;;;;;;;26.70;57.80;;;25.61;56.16;100152.78;12249107;19;19919;-90
2023/07/29 15:38:58;;;;;;;;;;;26.60;57.80;;;25.74;56.25;100194.81;12250013;19;19915;-90
2023/07/29 15:43:00;;;;;;;;;;;26.60;57.70;;;25.89;56.18;100215.31;12249975;19;19946;-90
2023/07/29 15:47:01;;;;;;;;;;;26.60;57.80;;;25.90;56.23;100207.09;12246626;19;19919;-89
2023/07/29 15:51:03;;;;;;;;;;;26.60;57.80;;;25.73;56.15;100184.31;12244473;19;19946;-90
2023/07/29 15:55:05;;;;;;;;;;;26.60;57.90;;;25.81;56.23;100201.03;12246403;19;19911;-89
2023/07/29 15:59:06;;;;;;;;;;;26.60;57.90;;;25.82;56.15;100220.59;12247217;19;19926;-90
2023/07/29 16:03:08;;;;;;;;;;;26.60;57.90;;;25.93;56.27;100283.47;12241167;19;19986;-88
2023/07/29 16:07:09;;;;;;;;;;;26.60;58.20;;;25.83;55.99;100311.38;12244404;19;19911;-88
2023/07/29 16:11:10;;;;;;;;;;;26.60;59.20;;;25.68;56.12;100307.97;12245927;19;19923;-88
2023/07/29 16:15:12;;;;;;;;;;;26.50;57.60;;;25.25;56.33;100240.31;12244001;19;19923;-89
2023/07/29 16:19:30;;;;;;;;;;;26.30;57.10;;;25.37;55.93;100269.00;12246161;19;19982;-89
2023/07/29 16:23:32;;;;;;;;;;;26.20;56.80;;;25.30;56.35;100275.31;12245746;19;19919;-88
2023/07/29 16:27:34;;;;;;;;;;;26.00;56.80;;;25.24;56.40;100292.13;12242613;19;19970;-89
2023/07/29 16:31:35;;;;;;;;;;;25.90;56.90;;;25.13;56.07;100282.75;12241460;19;19930;-89
2023/07/29 16:35:37;;;;;;;;;;;25.80;57.10;;;24.89;56.13;100259.91;12242219;19;20241;-89
2023/07/29 16:39:38;;;;;;;;;;;25.70;57.10;;;24.76;56.12;100249.06;12245593;19;19970;-90
2023/07/29 16:43:40;;;;;;;;;;;25.70;57.10;;;24.87;55.90;100257.44;12237449;19;19922;-90
2023/07/29 16:47:41;;;;;;;;;;;25.60;57.20;;;24.51;55.89;100214.69;12242045;19;20447;-90
2023/07/29 16:51:43;;;;;;;;;;;25.30;57.10;;;24.64;56.04;100257.56;12242227;19;20575;-90
2023/07/29 16:55:45;;;;;;;;;;;25.50;57.20;;;24.58;56.30;100258.34;12241933;19;20279;-90
2023/07/29 16:59:46;;;;;;;;;;;25.40;57.20;;;24.71;56.35;100277.19;12243438;19;19994;-90
2023/07/29 17:03:48;;;;;;;;;;;25.40;57.30;;;24.60;56.12;100258.13;12243372;19;19931;-90
2023/07/29 17:07:49;;;;;;;;;;;25.30;57.10;;;24.48;56.39;100245.28;12240278;19;19919;-90
2023/07/29 17:11:50;;;;;;;;;;;25.40;57.20;;;24.39;56.09;100237.53;12235228;19;19980;-90
2023/07/29 17:15:52;;;;;;;;;;;25.30;57.10;;;24.51;55.91;100265.44;12240758;19;19932;-90
2023/07/29 17:19:53;;;;;;;;;;;25.30;57.10;;;24.50;56.15;100267.28;12243558;19;19938;-90
2023/07/29 17:23:55;;;;;;;;;;;25.20;57.00;;;24.13;55.82;100212.16;12243228;19;19915;-89
2023/07/29 17:27:56;;;;;;;;;;;25.20;57.10;;;24.23;55.97;100241.25;12239915;19;20279;-90
2023/07/29 17:31:58;;;;;;;;;;;25.10;57.10;;;24.43;56.44;100281.53;12240805;19;19915;-89
2023/07/29 17:35:59;;;;;;;;;;;25.10;57.20;;;24.45;55.97;100285.69;12241265;19;19917;-89
2023/07/29 17:40:01;;;;;;;;;;;25.10;57.30;;;24.07;56.37;100212.91;12242343;19;19923;-89
2023/07/29 17:44:03;;;;;;;;;;;25.10;57.40;;;24.17;55.98;100244.63;12242757;19;19914;-89
2023/07/29 17:48:04;;;;;;;;;;;25.10;57.40;;;24.45;56.26;100287.53;12240118;19;19919;-89
2023/07/29 17:52:09;;;;;;;;;;;25.00;57.40;;;24.19;56.47;100254.09;12239503;19;19978;-90
2023/07/29 17:56:10;;;;;;;;;;;25.00;57.40;;;24.27;56.06;100270.00;12250199;19;19915;-90
2023/07/29 18:00:12;;;;;;;;;;;25.00;57.50;;;24.06;55.99;100233.44;12254785;19;19911;-89
2023/07/29 18:04:13;;;;;;;;;;;25.00;57.60;;;24.06;56.39;100237.91;12243448;19;19918;-89
2023/07/29 18:08:14;;;;;;;;;;;25.00;57.60;;;23.97;56.10;100221.19;12249670;19;19922;-89